createdAt,value
2022-07-29T00:02:15.745Z,84.96
2022-07-29T00:04:45.103Z,84.15
2022-07-29T00:07:13.055Z,83.83
2022-07-29T00:09:51.361Z,83.94
2022-07-29T00:12:25.735Z,83.49
2022-07-29T00:14:55.196Z,83.85
2022-07-29T00:17:23.157Z,84.73
2022-07-29T00:19:52.653Z,85.66
2022-07-29T00:22:21.367Z,85.81
2022-07-29T00:24:50.152Z,85.15
2022-07-29T00:27:18.612Z,85.08
2022-07-29T00:29:46.646Z,85.63
2022-07-29T00:32:14.698Z,86.86
2022-07-29T00:35:00.052Z,88.19
2022-07-29T00:37:29.681Z,89.08
2022-07-29T00:39:57.819Z,88.54
2022-07-29T00:42:25.772Z,90.45
2022-07-29T00:44:53.730Z,87.89
2022-07-29T00:47:21.695Z,87.26
2022-07-29T00:49:49.946Z,87.25
2022-07-29T00:52:17.955Z,87.40
2022-07-29T00:54:47.525Z,88.07
2022-07-29T00:57:15.497Z,88.70
2022-07-29T00:59:43.479Z,88.89
2022-07-29T01:02:11.569Z,88.04
2022-07-29T01:04:39.598Z,87.14
2022-07-29T01:07:08.019Z,87.05
2022-07-29T01:09:45.697Z,87.69
2022-07-29T01:12:19.252Z,89.56
2022-07-29T01:14:48.285Z,90.11
2022-07-29T01:17:20.501Z,90.79
2022-07-29T01:19:53.750Z,90.83
2022-07-29T01:22:28.858Z,90.88
2022-07-29T01:25:15.327Z,90.54
2022-07-29T01:27:54.515Z,90.81
2022-07-29T01:30:25.067Z,89.57
2022-07-29T01:32:57.114Z,88.49
2022-07-29T01:35:27.442Z,88.01
2022-07-29T01:38:00.839Z,88.14
2022-07-29T01:40:38.101Z,87.58
2022-07-29T01:43:11.917Z,88.89
2022-07-29T01:45:43.318Z,88.30
2022-07-29T01:48:14.738Z,88.51
2022-07-29T01:50:47.889Z,88.29
2022-07-29T01:53:19.058Z,88.40
2022-07-29T01:55:48.315Z,90.21
2022-07-29T01:58:16.645Z,93.73
2022-07-29T02:00:50.234Z,92.92
2022-07-29T02:03:20.059Z,90.30
2022-07-29T02:05:49.133Z,90.29
2022-07-29T02:08:18.951Z,88.97
2022-07-29T02:10:48.488Z,88.93
2022-07-29T02:13:18.171Z,89.27
2022-07-29T02:15:47.077Z,89.11
2022-07-29T02:18:20.082Z,88.88
2022-07-29T02:20:50.813Z,88.96
2022-07-29T02:23:21.344Z,89.71
2022-07-29T02:25:50.583Z,89.26
2022-07-29T02:28:21.362Z,89.37
2022-07-29T02:30:50.269Z,89.52
2022-07-29T02:33:20.945Z,89.53
2022-07-29T02:35:49.649Z,90.02
2022-07-29T02:38:36.110Z,90.10
2022-07-29T02:41:07.979Z,90.59
2022-07-29T02:43:36.545Z,90.46
2022-07-29T02:46:12.739Z,89.90
2022-07-29T02:49:00.897Z,89.60
2022-07-29T02:51:43.587Z,89.93
2022-07-29T02:54:14.059Z,90.56
2022-07-29T02:56:42.794Z,90.87
2022-07-29T02:59:12.776Z,90.72
2022-07-29T03:01:42.807Z,92.29
2022-07-29T03:04:14.658Z,91.21
2022-07-29T03:06:43.058Z,91.10
2022-07-29T03:09:13.702Z,90.52
2022-07-29T03:11:49.791Z,91.05
2022-07-29T03:14:20.492Z,92.47
2022-07-29T03:16:48.992Z,93.28
2022-07-29T03:19:18.745Z,92.81
2022-07-29T03:21:46.690Z,92.47
2022-07-29T03:24:27.670Z,92.51
2022-07-29T03:26:57.103Z,92.68
2022-07-29T03:29:25.115Z,92.14
2022-07-29T03:32:04.298Z,92.34
2022-07-29T03:34:37.844Z,92.26
2022-07-29T03:37:06.996Z,92.54
2022-07-29T03:39:38.966Z,92.16
2022-07-29T03:42:08.132Z,91.57
2022-07-29T03:44:37.158Z,91.43
2022-07-29T03:47:06.609Z,91.81
2022-07-29T03:49:36.445Z,92.54
2022-07-29T03:52:04.816Z,92.33
2022-07-29T03:54:32.766Z,92.76
2022-07-29T03:57:02.250Z,94.80
2022-07-29T03:59:30.275Z,93.75
2022-07-29T04:01:59.062Z,93.48
2022-07-29T04:04:27.458Z,93.97
2022-07-29T04:06:58.115Z,94.79
2022-07-29T04:09:26.055Z,93.62
2022-07-29T04:12:03.565Z,93.64
2022-07-29T04:14:33.105Z,93.80
2022-07-29T04:17:01.356Z,93.17
2022-07-29T04:19:29.370Z,92.63
2022-07-29T04:21:58.724Z,92.14
2022-07-29T04:24:26.866Z,92.32
2022-07-29T04:26:54.931Z,93.13
2022-07-29T04:29:22.868Z,94.06
2022-07-29T04:31:50.823Z,94.05
2022-07-29T04:34:19.284Z,94.17
2022-07-29T04:36:47.778Z,95.97
2022-07-29T04:39:22.769Z,96.90
2022-07-29T04:41:52.574Z,94.34
2022-07-29T04:44:26.559Z,96.30
2022-07-29T04:46:57.867Z,94.14
2022-07-29T04:49:26.009Z,96.51
2022-07-29T04:51:53.994Z,94.99
2022-07-29T04:54:23.325Z,93.24
2022-07-29T04:56:51.280Z,92.49
2022-07-29T04:59:19.202Z,92.11
2022-07-29T05:01:47.184Z,94.20
2022-07-29T05:04:15.344Z,94.22
2022-07-29T05:06:43.507Z,94.98
2022-07-29T05:09:11.483Z,95.75
2022-07-29T05:11:40.772Z,98.05
2022-07-29T05:14:08.725Z,99.16
2022-07-29T05:16:36.634Z,94.48
2022-07-29T05:19:04.645Z,93.60
2022-07-29T05:21:32.561Z,100.00
2022-07-29T05:24:00.507Z,99.46
2022-07-29T05:26:28.457Z,96.14
2022-07-29T05:28:58.088Z,94.69
2022-07-29T05:31:26.163Z,93.37
2022-07-29T05:33:54.146Z,92.93
2022-07-29T05:36:22.087Z,93.62
2022-07-29T05:38:50.078Z,93.68
2022-07-29T05:41:17.990Z,92.91
2022-07-29T05:43:45.940Z,94.35
2022-07-29T05:46:16.306Z,95.97
2022-07-29T05:48:44.332Z,92.74
2022-07-29T05:51:12.327Z,94.25
2022-07-29T05:53:40.525Z,94.31
2022-07-29T05:56:08.854Z,92.14
2022-07-29T05:58:37.262Z,96.31
2022-07-29T06:01:05.303Z,93.25
2022-07-29T06:03:35.634Z,90.89
2022-07-29T06:06:03.561Z,92.63
2022-07-29T06:08:31.475Z,93.67
2022-07-29T06:10:59.400Z,95.74
2022-07-29T06:13:27.341Z,92.01
2022-07-29T06:15:55.331Z,93.08
2022-07-29T06:18:24.801Z,92.44
2022-07-29T06:20:54.827Z,93.00
2022-07-29T06:23:23.180Z,98.83
2022-07-29T06:25:51.099Z,97.49
2022-07-29T06:28:19.060Z,95.15
2022-07-29T06:30:47.088Z,94.09
2022-07-29T06:33:18.897Z,95.17
2022-07-29T06:35:53.465Z,90.85
2022-07-29T06:38:31.276Z,92.79
2022-07-29T06:41:01.263Z,91.06
2022-07-29T06:43:32.446Z,90.20
2022-07-29T06:46:02.330Z,88.81
2022-07-29T06:48:31.179Z,90.30
2022-07-29T06:50:59.239Z,91.71
2022-07-29T06:53:28.575Z,92.64
2022-07-29T06:55:56.544Z,90.22
2022-07-29T06:58:24.474Z,89.15
2022-07-29T07:00:52.496Z,91.07
2022-07-29T07:03:20.849Z,89.19
2022-07-29T07:05:48.998Z,90.17
2022-07-29T07:08:18.080Z,85.02
2022-07-29T07:10:47.502Z,89.11
2022-07-29T07:13:18.231Z,88.83
2022-07-29T07:15:48.755Z,86.18
2022-07-29T07:18:17.209Z,86.64
2022-07-29T07:20:45.709Z,85.23
2022-07-29T07:23:13.809Z,90.05
2022-07-29T07:25:41.783Z,88.74
2022-07-29T07:28:11.248Z,83.65
2022-07-29T07:30:39.198Z,85.86
2022-07-29T07:33:07.206Z,84.70
2022-07-29T07:35:35.375Z,88.59
2022-07-29T07:38:03.461Z,84.68
2022-07-29T07:40:31.411Z,87.23
2022-07-29T07:42:59.365Z,87.03
2022-07-29T07:45:29.465Z,85.90
2022-07-29T07:47:57.402Z,88.34
2022-07-29T07:50:25.907Z,87.10
2022-07-29T07:52:55.988Z,84.65
2022-07-29T07:55:24.074Z,84.12
2022-07-29T07:57:52.150Z,86.56
2022-07-29T08:00:23.247Z,86.23
2022-07-29T08:02:53.305Z,83.49
2022-07-29T08:05:21.630Z,87.27
2022-07-29T08:07:49.561Z,83.42
2022-07-29T08:10:38.999Z,84.67
2022-07-29T08:13:07.903Z,81.31
2022-07-29T08:15:35.956Z,79.45
2022-07-29T08:18:08.784Z,80.81
2022-07-29T08:20:37.494Z,80.10
2022-07-29T08:23:07.027Z,81.78
2022-07-29T08:25:38.650Z,78.88
2022-07-29T08:28:08.187Z,77.46
2022-07-29T08:30:36.821Z,77.79
2022-07-29T08:33:06.175Z,76.78
2022-07-29T08:35:35.733Z,79.07
2022-07-29T08:38:04.798Z,78.57
2022-07-29T08:40:32.935Z,78.05
2022-07-29T08:43:01.858Z,79.47
2022-07-29T08:45:30.497Z,78.09
2022-07-29T08:47:59.085Z,79.51
2022-07-29T08:50:28.384Z,78.12
2022-07-29T08:52:59.719Z,79.42
2022-07-29T08:55:28.413Z,79.14
2022-07-29T08:57:57.345Z,75.16
2022-07-29T09:00:26.359Z,78.13
2022-07-29T09:02:59.707Z,75.13
2022-07-29T09:05:29.969Z,74.21
2022-07-29T09:07:58.380Z,76.78
2022-07-29T09:10:26.634Z,77.84
2022-07-29T09:12:54.624Z,78.69
2022-07-29T09:15:22.718Z,78.67
2022-07-29T09:17:51.782Z,77.18
2022-07-29T09:20:20.905Z,76.12
2022-07-29T09:22:51.876Z,78.51
2022-07-29T09:25:34.598Z,78.76
2022-07-29T09:28:08.805Z,76.18
2022-07-29T09:30:37.307Z,73.70
2022-07-29T09:33:05.690Z,76.35
2022-07-29T09:35:33.899Z,75.08
2022-07-29T09:38:13.640Z,73.02
2022-07-29T09:40:42.096Z,73.05
2022-07-29T09:43:13.830Z,74.00
2022-07-29T09:45:42.121Z,70.69
2022-07-29T09:48:18.262Z,68.23
2022-07-29T09:50:47.967Z,68.49
2022-07-29T09:53:32.406Z,66.10
2022-07-29T09:56:00.806Z,65.80
2022-07-29T09:58:29.178Z,65.63
2022-07-29T10:00:58.263Z,65.48
2022-07-29T10:03:26.779Z,65.12
2022-07-29T10:06:11.286Z,64.39
2022-07-29T10:08:41.894Z,65.38
2022-07-29T10:11:14.370Z,65.68
2022-07-29T10:13:43.393Z,64.64
2022-07-29T10:16:11.443Z,63.70
2022-07-29T10:18:42.155Z,65.59
2022-07-29T10:21:11.092Z,62.79
2022-07-29T10:23:52.032Z,63.88
2022-07-29T10:26:20.408Z,64.78
2022-07-29T10:28:48.405Z,63.27
2022-07-29T10:31:27.123Z,61.40
2022-07-29T10:34:04.350Z,65.50
2022-07-29T10:36:44.565Z,62.13
2022-07-29T10:39:25.421Z,62.04
2022-07-29T10:42:11.430Z,60.71
2022-07-29T10:44:42.653Z,60.12
2022-07-29T10:47:10.862Z,60.33
2022-07-29T10:49:41.076Z,59.69
2022-07-29T10:52:10.483Z,60.18
2022-07-29T10:54:43.885Z,58.71
2022-07-29T10:57:16.924Z,56.41
2022-07-29T10:59:46.313Z,57.11
2022-07-29T11:02:45.964Z,56.98
2022-07-29T11:05:15.495Z,56.76
2022-07-29T11:08:25.996Z,58.99
2022-07-29T11:11:44.133Z,55.39
2022-07-29T11:14:26.499Z,54.01
2022-07-29T11:17:06.109Z,55.41
2022-07-29T11:19:35.837Z,53.48
2022-07-29T11:22:05.376Z,52.60
2022-07-29T11:24:35.255Z,51.44
2022-07-29T11:27:10.869Z,50.66
2022-07-29T11:29:51.139Z,50.35
2022-07-29T11:32:22.687Z,49.92
2022-07-29T11:34:52.577Z,52.67
2022-07-29T11:37:28.378Z,52.69
2022-07-29T11:40:20.210Z,51.87
2022-07-29T11:42:51.865Z,50.42
2022-07-29T11:45:42.592Z,51.41
2022-07-29T11:48:28.982Z,48.14
2022-07-29T11:50:59.490Z,47.88
2022-07-29T11:53:29.204Z,49.33
2022-07-29T11:56:02.663Z,48.67
2022-07-29T11:58:31.893Z,47.93
2022-07-29T12:01:04.748Z,48.11
2022-07-29T12:03:35.929Z,47.00
2022-07-29T12:06:22.165Z,47.46
2022-07-29T12:08:50.476Z,44.05
2022-07-29T12:11:21.216Z,41.64
2022-07-29T12:13:52.391Z,46.66
2022-07-29T12:16:25.318Z,44.71
2022-07-29T12:19:02.373Z,44.97
2022-07-29T12:21:31.234Z,43.98
2022-07-29T12:24:05.917Z,45.99
2022-07-29T12:26:37.799Z,42.83
2022-07-29T12:29:11.227Z,43.62
2022-07-29T12:31:45.702Z,41.60
2022-07-29T12:34:14.425Z,45.68
2022-07-29T12:36:44.118Z,42.17
2022-07-29T12:39:12.544Z,42.55
2022-07-29T12:41:40.780Z,41.78
2022-07-29T12:44:08.771Z,41.72
2022-07-29T12:46:37.198Z,39.57
2022-07-29T12:49:06.792Z,42.66
2022-07-29T12:51:37.487Z,41.04
2022-07-29T12:54:07.945Z,36.87
2022-07-29T12:56:44.387Z,42.92
2022-07-29T12:59:17.856Z,41.61
2022-07-29T13:01:48.059Z,41.44
2022-07-29T13:04:28.621Z,37.52
2022-07-29T13:07:06.499Z,41.00
2022-07-29T13:09:42.290Z,40.46
2022-07-29T13:12:11.804Z,38.67
2022-07-29T13:14:41.078Z,40.95
2022-07-29T13:17:10.517Z,41.49
2022-07-29T13:19:42.390Z,41.62
2022-07-29T13:22:11.446Z,40.18
2022-07-29T13:24:50.403Z,42.85
2022-07-29T13:27:18.425Z,39.77
2022-07-29T13:29:47.422Z,38.38
2022-07-29T13:32:15.910Z,40.38
2022-07-29T13:34:45.281Z,41.16
2022-07-29T13:37:13.234Z,40.79
2022-07-29T13:39:41.162Z,40.10
2022-07-29T13:42:11.015Z,39.89
2022-07-29T13:44:39.290Z,39.69
2022-07-29T13:47:08.099Z,38.69
2022-07-29T13:49:36.077Z,38.59
2022-07-29T13:52:08.389Z,38.19
2022-07-29T13:54:41.977Z,37.92
2022-07-29T13:57:11.845Z,37.59
2022-07-29T13:59:40.275Z,37.66
2022-07-29T14:02:08.469Z,38.05
2022-07-29T14:04:36.886Z,38.05
2022-07-29T14:07:09.304Z,38.54
2022-07-29T14:09:41.089Z,37.94
2022-07-29T14:12:10.565Z,39.18
2022-07-29T14:14:38.578Z,38.02
2022-07-29T14:17:07.527Z,38.80
2022-07-29T14:19:38.975Z,38.39
2022-07-29T14:22:10.678Z,37.02
2022-07-29T14:24:46.250Z,37.17
2022-07-29T14:27:16.825Z,37.98
2022-07-29T14:29:50.426Z,37.55
2022-07-29T14:32:22.328Z,34.39
2022-07-29T14:34:50.283Z,35.44
2022-07-29T14:37:20.091Z,34.11
2022-07-29T14:39:48.035Z,38.39
2022-07-29T14:42:15.995Z,35.96
2022-07-29T14:44:44.678Z,37.09
2022-07-29T14:47:12.708Z,32.46
2022-07-29T14:49:40.679Z,34.66
2022-07-29T14:52:08.608Z,35.33
2022-07-29T14:54:37.932Z,35.92
2022-07-29T14:57:05.966Z,36.24
2022-07-29T14:59:33.997Z,36.16
2022-07-29T15:02:02.479Z,36.19
2022-07-29T15:04:31.183Z,36.88
2022-07-29T15:06:59.165Z,37.84
2022-07-29T15:09:27.093Z,37.20
2022-07-29T15:11:56.865Z,37.09
2022-07-29T15:14:25.023Z,37.72
2022-07-29T15:16:53.082Z,37.22
2022-07-29T15:19:21.153Z,36.84
2022-07-29T15:21:49.280Z,36.74
2022-07-29T15:24:17.729Z,37.26
2022-07-29T15:26:45.979Z,36.97
2022-07-29T15:29:15.642Z,38.17
2022-07-29T15:31:44.280Z,38.13
2022-07-29T15:34:12.609Z,38.05
2022-07-29T15:36:56.299Z,37.94
2022-07-29T15:39:24.378Z,38.79
2022-07-29T15:41:52.962Z,40.65
2022-07-29T15:44:22.933Z,40.47
2022-07-29T15:47:07.183Z,42.48
2022-07-29T15:49:48.178Z,41.94
2022-07-29T15:52:25.506Z,41.72
2022-07-29T15:54:55.083Z,42.08
2022-07-29T15:57:23.665Z,43.40
2022-07-29T15:59:53.208Z,43.43
2022-07-29T16:02:21.214Z,43.93
2022-07-29T16:04:49.593Z,43.77
2022-07-29T16:07:17.569Z,44.74
2022-07-29T16:09:50.729Z,44.81
2022-07-29T16:12:20.835Z,44.85
2022-07-29T16:14:51.199Z,45.38
2022-07-29T16:17:21.090Z,44.59
2022-07-29T16:19:49.529Z,45.30
2022-07-29T16:22:17.631Z,46.58
2022-07-29T16:24:46.062Z,45.82
2022-07-29T16:27:13.987Z,46.11
2022-07-29T16:29:41.967Z,46.75
2022-07-29T16:32:09.992Z,46.90
2022-07-29T16:34:39.907Z,46.05
2022-07-29T16:37:07.850Z,47.13
2022-07-29T16:39:35.784Z,48.60
2022-07-29T16:42:05.452Z,47.64
2022-07-29T16:44:34.881Z,48.09
2022-07-29T16:47:04.014Z,47.53
2022-07-29T16:49:32.730Z,48.07
2022-07-29T16:52:02.056Z,47.63
2022-07-29T16:54:30.050Z,49.76
2022-07-29T16:57:00.718Z,50.83
2022-07-29T16:59:29.433Z,49.89
2022-07-29T17:01:57.887Z,51.44
2022-07-29T17:04:27.552Z,49.99
2022-07-29T17:06:56.045Z,50.04
2022-07-29T17:09:25.626Z,50.19
2022-07-29T17:11:55.165Z,52.21
2022-07-29T17:14:24.999Z,50.67
2022-07-29T17:17:00.893Z,50.70
2022-07-29T17:19:30.501Z,51.93
2022-07-29T17:22:08.385Z,50.77
2022-07-29T17:24:41.262Z,51.89
2022-07-29T17:27:09.502Z,51.18
2022-07-29T17:29:37.526Z,51.48
2022-07-29T17:32:07.495Z,53.22
2022-07-29T17:34:36.403Z,54.21
2022-07-29T17:37:04.543Z,53.85
2022-07-29T17:39:32.874Z,53.68
2022-07-29T17:42:02.418Z,53.45
2022-07-29T17:44:30.475Z,55.53
2022-07-29T17:46:58.727Z,53.59
2022-07-29T17:49:27.320Z,54.67
2022-07-29T17:52:00.376Z,54.43
2022-07-29T17:54:28.931Z,55.39
2022-07-29T17:56:57.355Z,54.85
2022-07-29T17:59:27.135Z,55.41
2022-07-29T18:01:55.438Z,58.02
2022-07-29T18:04:23.709Z,58.07
2022-07-29T18:06:51.895Z,58.61
2022-07-29T18:09:20.217Z,58.84
2022-07-29T18:11:48.926Z,60.46
2022-07-29T18:14:17.291Z,58.65
2022-07-29T18:16:46.808Z,57.39
2022-07-29T18:19:14.960Z,58.32
2022-07-29T18:21:54.742Z,60.58
2022-07-29T18:24:25.524Z,61.15
2022-07-29T18:26:53.762Z,61.75
2022-07-29T18:29:21.952Z,61.48
2022-07-29T18:31:51.471Z,60.19
2022-07-29T18:34:19.426Z,62.78
2022-07-29T18:36:47.445Z,62.12
2022-07-29T18:39:20.632Z,63.43
2022-07-29T18:41:51.053Z,64.70
2022-07-29T18:44:22.050Z,64.03
2022-07-29T18:46:52.516Z,62.05
2022-07-29T18:49:20.714Z,63.57
2022-07-29T18:51:48.851Z,66.59
2022-07-29T18:54:17.633Z,63.93
2022-07-29T18:56:45.987Z,62.87
2022-07-29T18:59:16.959Z,64.28
2022-07-29T19:01:46.190Z,64.59
2022-07-29T19:04:15.721Z,68.04
2022-07-29T19:06:43.766Z,68.93
2022-07-29T19:09:12.336Z,64.47
2022-07-29T19:11:41.001Z,69.28
2022-07-29T19:14:08.986Z,67.78
2022-07-29T19:16:37.001Z,68.11
2022-07-29T19:19:06.428Z,66.57
2022-07-29T19:21:36.011Z,65.88
2022-07-29T19:24:07.435Z,66.25
2022-07-29T19:26:39.441Z,67.94
2022-07-29T19:29:07.404Z,65.76
2022-07-29T19:31:35.486Z,65.89
2022-07-29T19:34:03.514Z,70.58
2022-07-29T19:36:31.550Z,68.72
2022-07-29T19:39:01.115Z,68.87
2022-07-29T19:41:29.493Z,68.69
2022-07-29T19:43:57.688Z,71.21
2022-07-29T19:46:28.899Z,71.42
2022-07-29T19:48:57.477Z,70.20
2022-07-29T19:51:25.779Z,71.14
2022-07-29T19:53:53.737Z,69.00
2022-07-29T19:56:26.651Z,69.88
2022-07-29T19:58:54.694Z,67.96
2022-07-29T20:01:23.374Z,70.21
2022-07-29T20:03:51.831Z,73.09
2022-07-29T20:06:19.771Z,69.40
2022-07-29T20:08:47.938Z,69.88
2022-07-29T20:11:16.026Z,69.92
2022-07-29T20:13:45.365Z,73.38
2022-07-29T20:16:13.371Z,73.76
2022-07-29T20:18:41.399Z,69.79
2022-07-29T20:21:09.349Z,74.43
2022-07-29T20:23:37.447Z,73.71
2022-07-29T20:26:09.254Z,70.92
2022-07-29T20:28:39.517Z,71.09
2022-07-29T20:31:09.127Z,72.20
2022-07-29T20:33:37.221Z,74.87
2022-07-29T20:36:06.041Z,72.51
2022-07-29T20:38:33.978Z,72.51
2022-07-29T20:41:01.925Z,73.84
2022-07-29T20:43:29.937Z,74.42
2022-07-29T20:46:04.158Z,81.30
2022-07-29T20:48:33.777Z,73.55
2022-07-29T20:51:01.707Z,74.02
2022-07-29T20:53:29.807Z,73.17
2022-07-29T20:55:57.745Z,73.65
2022-07-29T20:58:25.751Z,76.70
2022-07-29T21:00:53.714Z,77.09
2022-07-29T21:03:21.656Z,77.50
2022-07-29T21:05:51.551Z,74.53
2022-07-29T21:08:19.469Z,80.56
2022-07-29T21:10:47.410Z,76.71
2022-07-29T21:13:15.342Z,78.06
2022-07-29T21:15:45.862Z,78.78
2022-07-29T21:18:27.148Z,77.22
2022-07-29T21:20:56.554Z,75.48
2022-07-29T21:23:24.625Z,76.08
2022-07-29T21:25:52.897Z,77.20
2022-07-29T21:28:30.602Z,76.10
2022-07-29T21:31:00.602Z,81.30
2022-07-29T21:33:30.354Z,75.53
2022-07-29T21:36:16.007Z,76.63
2022-07-29T21:38:47.681Z,82.33
2022-07-29T21:41:15.837Z,81.79
2022-07-29T21:43:43.809Z,84.46
2022-07-29T21:46:11.747Z,77.72
2022-07-29T21:48:44.220Z,81.96
2022-07-29T21:51:13.970Z,80.32
2022-07-29T21:53:41.942Z,88.02
2022-07-29T21:56:10.948Z,81.81
2022-07-29T21:58:43.203Z,83.63
2022-07-29T22:01:11.312Z,81.79
2022-07-29T22:03:39.269Z,81.62
2022-07-29T22:06:07.357Z,81.65
2022-07-29T22:08:36.693Z,89.77
2022-07-29T22:11:04.621Z,88.21
2022-07-29T22:13:32.634Z,88.26
2022-07-29T22:16:00.553Z,87.73
2022-07-29T22:18:28.470Z,89.64
2022-07-29T22:20:56.549Z,86.12
2022-07-29T22:23:24.488Z,87.11
2022-07-29T22:25:53.817Z,82.76
2022-07-29T22:28:21.781Z,80.62
2022-07-29T22:30:49.783Z,83.91
2022-07-29T22:33:18.256Z,80.11
2022-07-29T22:35:48.463Z,78.76
2022-07-29T22:38:17.174Z,78.24
2022-07-29T22:40:45.152Z,80.37
2022-07-29T22:43:14.713Z,79.29
2022-07-29T22:45:43.010Z,85.59
2022-07-29T22:48:11.242Z,90.49
2022-07-29T22:50:39.566Z,83.77
2022-07-29T22:53:07.527Z,87.59
2022-07-29T22:55:35.505Z,89.85
2022-07-29T22:58:03.423Z,93.58
2022-07-29T23:00:32.837Z,100.00
2022-07-29T23:03:00.823Z,100.00
2022-07-29T23:05:28.777Z,99.26
2022-07-29T23:07:56.741Z,100.00
2022-07-29T23:10:24.683Z,100.00
2022-07-29T23:12:52.616Z,100.00
2022-07-29T23:15:20.786Z,100.00
2022-07-29T23:17:50.106Z,100.00
2022-07-29T23:20:18.054Z,100.00
2022-07-29T23:22:46.011Z,100.00
2022-07-29T23:25:13.994Z,100.00
2022-07-29T23:27:42.285Z,100.00
2022-07-29T23:30:11.080Z,100.00
2022-07-29T23:32:39.068Z,100.00
2022-07-29T23:35:10.290Z,100.00
2022-07-29T23:37:39.285Z,100.00
2022-07-29T23:40:13.614Z,100.00
2022-07-29T23:42:42.992Z,100.00
2022-07-29T23:45:12.152Z,100.00
2022-07-29T23:47:40.082Z,100.00
2022-07-29T23:50:13.191Z,100.00
2022-07-29T23:52:41.528Z,100.00
2022-07-29T23:55:37.497Z,100.00
2022-07-29T23:57:57.839Z,100.00
